sensor_id;sensor_type;location;lat;lon;timestamp;temperature;humidity
14735;DHT22;7458;49.002;8.472;2022-09-27T00:00:42;11.30;99.90
14735;DHT22;7458;49.002;8.472;2022-09-27T00:03:10;11.40;99.90
14735;DHT22;7458;49.002;8.472;2022-09-27T00:05:37;11.40;99.90
14735;DHT22;7458;49.002;8.472;2022-09-27T00:08:03;11.40;99.90
14735;DHT22;7458;49.002;8.472;2022-09-27T00:10:29;11.40;99.90
14735;DHT22;7458;49.002;8.472;2022-09-27T00:12:55;11.40;99.90
14735;DHT22;7458;49.002;8.472;2022-09-27T00:15:22;11.50;99.90
14735;DHT22;7458;49.002;8.472;2022-09-27T00:17:48;11.40;99.90
14735;DHT22;7458;49.002;8.472;2022-09-27T00:20:18;11.40;99.90
14735;DHT22;7458;49.002;8.472;2022-09-27T00:22:46;11.40;99.90
14735;DHT22;7458;49.002;8.472;2022-09-27T00:25:13;11.40;99.90
14735;DHT22;7458;49.002;8.472;2022-09-27T00:27:40;11.40;99.90
14735;DHT22;7458;49.002;8.472;2022-09-27T00:30:06;11.40;99.90
14735;DHT22;7458;49.002;8.472;2022-09-27T00:32:32;11.40;99.90
14735;DHT22;7458;49.002;8.472;2022-09-27T00:34:58;11.40;99.90
14735;DHT22;7458;49.002;8.472;2022-09-27T00:37:23;11.40;99.90
14735;DHT22;7458;49.002;8.472;2022-09-27T00:39:50;11.40;99.90
14735;DHT22;7458;49.002;8.472;2022-09-27T00:42:16;11.40;99.90
14735;DHT22;7458;49.002;8.472;2022-09-27T00:44:48;11.40;99.90
14735;DHT22;7458;49.002;8.472;2022-09-27T00:47:34;11.40;99.90
14735;DHT22;7458;49.002;8.472;2022-09-27T00:50:18;11.40;99.90
14735;DHT22;7458;49.002;8.472;2022-09-27T00:55:37;11.40;99.90
14735;DHT22;7458;49.002;8.472;2022-09-27T00:58:13;11.40;99.90
14735;DHT22;7458;49.002;8.472;2022-09-27T01:00:51;11.50;99.90
14735;DHT22;7458;49.002;8.472;2022-09-27T01:06:12;11.50;99.90
14735;DHT22;7458;49.002;8.472;2022-09-27T01:08:39;11.50;99.90
14735;DHT22;7458;49.002;8.472;2022-09-27T01:31:46;11.40;99.90
14735;DHT22;7458;49.002;8.472;2022-09-27T01:34:36;11.40;99.90
14735;DHT22;7458;49.002;8.472;2022-09-27T01:40:24;11.40;99.90
14735;DHT22;7458;49.002;8.472;2022-09-27T01:46:00;11.40;99.90
14735;DHT22;7458;49.002;8.472;2022-09-27T01:48:39;11.40;99.90
14735;DHT22;7458;49.002;8.472;2022-09-27T01:51:19;11.30;99.90
14735;DHT22;7458;49.002;8.472;2022-09-27T01:53:52;11.30;99.90
14735;DHT22;7458;49.002;8.472;2022-09-27T01:56:25;11.30;99.90
14735;DHT22;7458;49.002;8.472;2022-09-27T01:59:22;11.30;99.90
14735;DHT22;7458;49.002;8.472;2022-09-27T02:01:55;11.30;99.90
14735;DHT22;7458;49.002;8.472;2022-09-27T02:04:29;11.30;99.90
14735;DHT22;7458;49.002;8.472;2022-09-27T02:07:10;11.30;99.90
14735;DHT22;7458;49.002;8.472;2022-09-27T02:09:45;11.30;99.90
14735;DHT22;7458;49.002;8.472;2022-09-27T02:12:19;11.30;99.90
14735;DHT22;7458;49.002;8.472;2022-09-27T02:15:08;11.30;99.90
14735;DHT22;7458;49.002;8.472;2022-09-27T02:17:43;11.30;99.90
14735;DHT22;7458;49.002;8.472;2022-09-27T02:28:30;11.10;99.90
14735;DHT22;7458;49.002;8.472;2022-09-27T02:31:01;11.20;99.90
14735;DHT22;7458;49.002;8.472;2022-09-27T02:33:36;11.10;99.90
14735;DHT22;7458;49.002;8.472;2022-09-27T02:36:07;11.10;99.90
14735;DHT22;7458;49.002;8.472;2022-09-27T02:38:34;11.20;99.90
14735;DHT22;7458;49.002;8.472;2022-09-27T02:40:59;11.10;99.90
14735;DHT22;7458;49.002;8.472;2022-09-27T02:43:28;11.10;99.90
14735;DHT22;7458;49.002;8.472;2022-09-27T02:57:45;11.20;99.90
14735;DHT22;7458;49.002;8.472;2022-09-27T03:00:31;11.20;99.90
14735;DHT22;7458;49.002;8.472;2022-09-27T03:05:50;11.10;99.90
14735;DHT22;7458;49.002;8.472;2022-09-27T03:08:19;11.10;99.90
14735;DHT22;7458;49.002;8.472;2022-09-27T03:10:45;11.10;99.90
14735;DHT22;7458;49.002;8.472;2022-09-27T03:13:11;11.10;99.90
14735;DHT22;7458;49.002;8.472;2022-09-27T03:15:37;11.10;99.90
14735;DHT22;7458;49.002;8.472;2022-09-27T03:18:05;11.10;99.90
14735;DHT22;7458;49.002;8.472;2022-09-27T03:20:31;11.10;99.90
14735;DHT22;7458;49.002;8.472;2022-09-27T03:22:57;11.10;99.90
14735;DHT22;7458;49.002;8.472;2022-09-27T03:25:23;11.10;99.90
14735;DHT22;7458;49.002;8.472;2022-09-27T03:27:49;11.10;99.90
14735;DHT22;7458;49.002;8.472;2022-09-27T03:30:15;11.10;99.90
14735;DHT22;7458;49.002;8.472;2022-09-27T03:32:42;11.10;99.90
14735;DHT22;7458;49.002;8.472;2022-09-27T03:35:10;11.10;99.90
14735;DHT22;7458;49.002;8.472;2022-09-27T03:37:37;11.00;99.90
14735;DHT22;7458;49.002;8.472;2022-09-27T03:40:04;11.10;99.90
14735;DHT22;7458;49.002;8.472;2022-09-27T03:42:30;11.10;99.90
14735;DHT22;7458;49.002;8.472;2022-09-27T03:44:56;11.10;99.90
14735;DHT22;7458;49.002;8.472;2022-09-27T03:47:22;11.10;99.90
14735;DHT22;7458;49.002;8.472;2022-09-27T03:49:48;11.10;99.90
14735;DHT22;7458;49.002;8.472;2022-09-27T03:52:15;11.10;99.90
14735;DHT22;7458;49.002;8.472;2022-09-27T03:54:43;11.10;99.90
14735;DHT22;7458;49.002;8.472;2022-09-27T03:57:10;11.00;99.90
14735;DHT22;7458;49.002;8.472;2022-09-27T03:59:36;11.00;99.90
14735;DHT22;7458;49.002;8.472;2022-09-27T04:02:01;11.10;99.90
14735;DHT22;7458;49.002;8.472;2022-09-27T04:04:27;11.10;99.90
14735;DHT22;7458;49.002;8.472;2022-09-27T04:06:53;11.10;99.90
14735;DHT22;7458;49.002;8.472;2022-09-27T04:09:19;11.10;99.90
14735;DHT22;7458;49.002;8.472;2022-09-27T04:11:45;11.20;99.90
14735;DHT22;7458;49.002;8.472;2022-09-27T04:14:10;11.10;99.90
14735;DHT22;7458;49.002;8.472;2022-09-27T04:16:38;11.10;99.90
14735;DHT22;7458;49.002;8.472;2022-09-27T04:19:05;11.10;99.90
14735;DHT22;7458;49.002;8.472;2022-09-27T04:21:32;11.00;99.90
14735;DHT22;7458;49.002;8.472;2022-09-27T04:23:58;11.00;99.90
14735;DHT22;7458;49.002;8.472;2022-09-27T04:26:24;11.00;99.90
14735;DHT22;7458;49.002;8.472;2022-09-27T04:28:51;11.00;99.90
14735;DHT22;7458;49.002;8.472;2022-09-27T04:31:18;11.00;99.90
14735;DHT22;7458;49.002;8.472;2022-09-27T04:33:44;10.90;99.90
14735;DHT22;7458;49.002;8.472;2022-09-27T04:36:16;11.00;99.90
14735;DHT22;7458;49.002;8.472;2022-09-27T04:38:59;10.90;99.90
14735;DHT22;7458;49.002;8.472;2022-09-27T04:41:27;10.90;99.90
14735;DHT22;7458;49.002;8.472;2022-09-27T04:43:54;10.90;99.90
14735;DHT22;7458;49.002;8.472;2022-09-27T04:46:21;10.90;99.90
14735;DHT22;7458;49.002;8.472;2022-09-27T04:48:49;10.90;99.90
14735;DHT22;7458;49.002;8.472;2022-09-27T04:51:16;10.90;99.90
14735;DHT22;7458;49.002;8.472;2022-09-27T04:53:43;10.90;99.90
14735;DHT22;7458;49.002;8.472;2022-09-27T04:56:10;10.90;99.90
14735;DHT22;7458;49.002;8.472;2022-09-27T04:58:37;10.90;99.90
14735;DHT22;7458;49.002;8.472;2022-09-27T05:01:04;10.90;99.90
14735;DHT22;7458;49.002;8.472;2022-09-27T05:03:30;10.90;99.90
14735;DHT22;7458;49.002;8.472;2022-09-27T05:05:57;10.90;99.90
14735;DHT22;7458;49.002;8.472;2022-09-27T05:08:23;10.90;99.90
14735;DHT22;7458;49.002;8.472;2022-09-27T05:10:49;10.90;99.90
14735;DHT22;7458;49.002;8.472;2022-09-27T05:13:16;10.90;99.90
14735;DHT22;7458;49.002;8.472;2022-09-27T05:15:42;10.90;99.90
14735;DHT22;7458;49.002;8.472;2022-09-27T05:18:08;10.90;99.90
14735;DHT22;7458;49.002;8.472;2022-09-27T05:20:37;10.90;99.90
14735;DHT22;7458;49.002;8.472;2022-09-27T05:23:04;10.90;99.90
14735;DHT22;7458;49.002;8.472;2022-09-27T05:25:31;10.90;99.90
14735;DHT22;7458;49.002;8.472;2022-09-27T05:27:58;10.90;99.90
14735;DHT22;7458;49.002;8.472;2022-09-27T05:30:25;10.90;99.90
14735;DHT22;7458;49.002;8.472;2022-09-27T05:32:52;10.90;99.90
14735;DHT22;7458;49.002;8.472;2022-09-27T05:35:18;10.90;99.90
14735;DHT22;7458;49.002;8.472;2022-09-27T05:37:58;10.80;99.90
14735;DHT22;7458;49.002;8.472;2022-09-27T05:40:25;10.90;99.90
14735;DHT22;7458;49.002;8.472;2022-09-27T05:42:54;10.90;99.90
14735;DHT22;7458;49.002;8.472;2022-09-27T05:45:21;10.80;99.90
14735;DHT22;7458;49.002;8.472;2022-09-27T05:47:55;10.90;99.90
14735;DHT22;7458;49.002;8.472;2022-09-27T05:50:24;10.90;99.90
14735;DHT22;7458;49.002;8.472;2022-09-27T05:52:51;10.90;99.90
14735;DHT22;7458;49.002;8.472;2022-09-27T05:55:17;11.10;99.90
14735;DHT22;7458;49.002;8.472;2022-09-27T05:57:58;11.10;99.90
14735;DHT22;7458;49.002;8.472;2022-09-27T06:00:26;11.10;99.90
14735;DHT22;7458;49.002;8.472;2022-09-27T06:03:03;11.10;99.90
14735;DHT22;7458;49.002;8.472;2022-09-27T06:05:34;11.10;99.90
14735;DHT22;7458;49.002;8.472;2022-09-27T06:08:05;11.00;99.90
14735;DHT22;7458;49.002;8.472;2022-09-27T06:10:33;11.00;99.90
14735;DHT22;7458;49.002;8.472;2022-09-27T06:13:06;11.00;99.90
14735;DHT22;7458;49.002;8.472;2022-09-27T06:15:37;10.90;99.90
14735;DHT22;7458;49.002;8.472;2022-09-27T06:18:08;10.80;99.90
14735;DHT22;7458;49.002;8.472;2022-09-27T06:20:40;10.90;99.90
14735;DHT22;7458;49.002;8.472;2022-09-27T06:23:12;11.00;99.90
14735;DHT22;7458;49.002;8.472;2022-09-27T06:25:40;11.00;99.90
14735;DHT22;7458;49.002;8.472;2022-09-27T06:28:07;11.00;99.90
14735;DHT22;7458;49.002;8.472;2022-09-27T06:30:38;10.90;99.90
14735;DHT22;7458;49.002;8.472;2022-09-27T06:33:05;10.90;99.90
14735;DHT22;7458;49.002;8.472;2022-09-27T06:35:34;10.80;99.90
14735;DHT22;7458;49.002;8.472;2022-09-27T06:38:05;10.80;99.90
14735;DHT22;7458;49.002;8.472;2022-09-27T06:40:34;10.70;99.90
14735;DHT22;7458;49.002;8.472;2022-09-27T06:43:08;10.80;99.90
14735;DHT22;7458;49.002;8.472;2022-09-27T06:45:35;10.80;99.90
14735;DHT22;7458;49.002;8.472;2022-09-27T06:48:06;10.80;99.90
14735;DHT22;7458;49.002;8.472;2022-09-27T06:50:35;10.80;99.90
14735;DHT22;7458;49.002;8.472;2022-09-27T06:53:07;10.80;99.90
14735;DHT22;7458;49.002;8.472;2022-09-27T06:55:35;10.80;99.90
14735;DHT22;7458;49.002;8.472;2022-09-27T06:58:02;10.90;99.90
14735;DHT22;7458;49.002;8.472;2022-09-27T07:00:51;10.90;99.90
14735;DHT22;7458;49.002;8.472;2022-09-27T07:03:19;11.00;99.90
14735;DHT22;7458;49.002;8.472;2022-09-27T07:06:01;11.00;99.90
14735;DHT22;7458;49.002;8.472;2022-09-27T07:08:29;11.00;99.90
14735;DHT22;7458;49.002;8.472;2022-09-27T07:11:08;10.90;99.90
14735;DHT22;7458;49.002;8.472;2022-09-27T07:13:34;10.90;99.90
14735;DHT22;7458;49.002;8.472;2022-09-27T07:16:05;10.90;99.90
14735;DHT22;7458;49.002;8.472;2022-09-27T07:18:30;10.90;99.90
14735;DHT22;7458;49.002;8.472;2022-09-27T07:20:58;11.00;99.90
14735;DHT22;7458;49.002;8.472;2022-09-27T07:23:26;11.10;99.90
14735;DHT22;7458;49.002;8.472;2022-09-27T07:25:52;11.20;99.90
14735;DHT22;7458;49.002;8.472;2022-09-27T07:28:18;11.40;99.90
14735;DHT22;7458;49.002;8.472;2022-09-27T07:30:45;11.60;99.90
14735;DHT22;7458;49.002;8.472;2022-09-27T07:33:11;11.80;99.90
14735;DHT22;7458;49.002;8.472;2022-09-27T07:35:39;12.00;99.90
14735;DHT22;7458;49.002;8.472;2022-09-27T07:38:06;12.20;99.90
14735;DHT22;7458;49.002;8.472;2022-09-27T07:40:36;12.30;99.90
14735;DHT22;7458;49.002;8.472;2022-09-27T07:43:03;12.40;99.90
14735;DHT22;7458;49.002;8.472;2022-09-27T07:45:29;12.30;99.90
14735;DHT22;7458;49.002;8.472;2022-09-27T07:47:56;12.30;99.90
14735;DHT22;7458;49.002;8.472;2022-09-27T07:50:22;12.30;99.90
14735;DHT22;7458;49.002;8.472;2022-09-27T07:52:49;12.30;99.90
14735;DHT22;7458;49.002;8.472;2022-09-27T07:55:17;12.30;99.90
14735;DHT22;7458;49.002;8.472;2022-09-27T07:57:44;12.30;99.90
14735;DHT22;7458;49.002;8.472;2022-09-27T08:00:14;12.30;99.90
14735;DHT22;7458;49.002;8.472;2022-09-27T08:02:42;12.30;99.90
14735;DHT22;7458;49.002;8.472;2022-09-27T08:05:10;12.40;99.90
14735;DHT22;7458;49.002;8.472;2022-09-27T08:07:37;12.40;99.90
14735;DHT22;7458;49.002;8.472;2022-09-27T08:10:06;12.40;99.90
14735;DHT22;7458;49.002;8.472;2022-09-27T08:12:33;12.40;99.90
14735;DHT22;7458;49.002;8.472;2022-09-27T08:14:59;12.40;99.90
14735;DHT22;7458;49.002;8.472;2022-09-27T08:17:27;12.40;99.90
14735;DHT22;7458;49.002;8.472;2022-09-27T08:19:53;12.40;99.90
14735;DHT22;7458;49.002;8.472;2022-09-27T08:22:20;12.30;99.90
14735;DHT22;7458;49.002;8.472;2022-09-27T08:24:46;12.40;99.90
14735;DHT22;7458;49.002;8.472;2022-09-27T08:27:13;12.30;99.90
14735;DHT22;7458;49.002;8.472;2022-09-27T08:29:40;12.40;99.90
14735;DHT22;7458;49.002;8.472;2022-09-27T08:32:08;12.50;99.90
14735;DHT22;7458;49.002;8.472;2022-09-27T08:34:35;12.80;99.90
14735;DHT22;7458;49.002;8.472;2022-09-27T08:37:01;13.00;99.90
14735;DHT22;7458;49.002;8.472;2022-09-27T08:39:27;13.00;99.90
14735;DHT22;7458;49.002;8.472;2022-09-27T08:45:02;13.10;99.90
14735;DHT22;7458;49.002;8.472;2022-09-27T08:47:41;13.20;99.90
14735;DHT22;7458;49.002;8.472;2022-09-27T08:52:57;13.30;99.90
14735;DHT22;7458;49.002;8.472;2022-09-27T08:55:47;13.70;99.90
14735;DHT22;7458;49.002;8.472;2022-09-27T09:01:01;14.00;99.90
14735;DHT22;7458;49.002;8.472;2022-09-27T09:03:30;13.90;99.90
14735;DHT22;7458;49.002;8.472;2022-09-27T09:06:25;13.80;99.90
14735;DHT22;7458;49.002;8.472;2022-09-27T09:12:12;13.70;99.90
14735;DHT22;7458;49.002;8.472;2022-09-27T09:18:16;13.80;99.90
14735;DHT22;7458;49.002;8.472;2022-09-27T09:21:09;13.70;99.90
14735;DHT22;7458;49.002;8.472;2022-09-27T09:23:52;13.80;99.90
14735;DHT22;7458;49.002;8.472;2022-09-27T09:26:49;13.70;99.90
14735;DHT22;7458;49.002;8.472;2022-09-27T09:35:44;14.90;99.90
14735;DHT22;7458;49.002;8.472;2022-09-27T09:38:22;15.10;99.90
14735;DHT22;7458;49.002;8.472;2022-09-27T09:43:32;14.70;99.90
14735;DHT22;7458;49.002;8.472;2022-09-27T09:46:13;14.60;99.90
14735;DHT22;7458;49.002;8.472;2022-09-27T09:48:48;14.40;99.90
14735;DHT22;7458;49.002;8.472;2022-09-27T09:51:22;14.20;99.90
14735;DHT22;7458;49.002;8.472;2022-09-27T09:54:01;14.00;99.90
14735;DHT22;7458;49.002;8.472;2022-09-27T09:56:47;13.80;99.90
14735;DHT22;7458;49.002;8.472;2022-09-27T09:59:28;13.80;99.90
14735;DHT22;7458;49.002;8.472;2022-09-27T10:04:54;13.50;99.90
14735;DHT22;7458;49.002;8.472;2022-09-27T10:07:22;13.40;99.90
14735;DHT22;7458;49.002;8.472;2022-09-27T10:09:54;13.20;99.90
14735;DHT22;7458;49.002;8.472;2022-09-27T10:12:24;13.30;99.90
14735;DHT22;7458;49.002;8.472;2022-09-27T10:14:52;13.30;99.90
14735;DHT22;7458;49.002;8.472;2022-09-27T10:17:24;13.30;99.90
14735;DHT22;7458;49.002;8.472;2022-09-27T10:19:57;13.50;99.90
14735;DHT22;7458;49.002;8.472;2022-09-27T10:22:42;13.60;99.90
14735;DHT22;7458;49.002;8.472;2022-09-27T10:25:12;13.70;99.90
14735;DHT22;7458;49.002;8.472;2022-09-27T10:27:46;13.80;99.90
14735;DHT22;7458;49.002;8.472;2022-09-27T10:30:26;13.80;99.90
14735;DHT22;7458;49.002;8.472;2022-09-27T10:32:57;13.70;99.90
14735;DHT22;7458;49.002;8.472;2022-09-27T10:35:42;13.70;99.90
14735;DHT22;7458;49.002;8.472;2022-09-27T10:40:44;13.60;99.90
14735;DHT22;7458;49.002;8.472;2022-09-27T10:43:35;13.70;99.90
14735;DHT22;7458;49.002;8.472;2022-09-27T10:46:26;13.60;99.90
14735;DHT22;7458;49.002;8.472;2022-09-27T10:49:21;13.40;99.90
14735;DHT22;7458;49.002;8.472;2022-09-27T10:51:57;12.90;99.90
14735;DHT22;7458;49.002;8.472;2022-09-27T10:54:32;12.60;99.90
14735;DHT22;7458;49.002;8.472;2022-09-27T10:57:03;12.30;99.90
14735;DHT22;7458;49.002;8.472;2022-09-27T10:59:43;12.00;99.90
14735;DHT22;7458;49.002;8.472;2022-09-27T11:02:32;11.70;99.90
14735;DHT22;7458;49.002;8.472;2022-09-27T11:07:50;11.30;99.90
14735;DHT22;7458;49.002;8.472;2022-09-27T11:10:28;11.20;99.90
14735;DHT22;7458;49.002;8.472;2022-09-27T11:13:13;11.00;99.90
14735;DHT22;7458;49.002;8.472;2022-09-27T11:18:58;10.80;99.90
14735;DHT22;7458;49.002;8.472;2022-09-27T11:27:08;10.70;99.90
14735;DHT22;7458;49.002;8.472;2022-09-27T11:30:09;10.60;99.90
14735;DHT22;7458;49.002;8.472;2022-09-27T11:41:36;10.20;99.90
14735;DHT22;7458;49.002;8.472;2022-09-27T11:50:22;10.20;99.90
14735;DHT22;7458;49.002;8.472;2022-09-27T11:59:13;10.50;99.90
14735;DHT22;7458;49.002;8.472;2022-09-27T12:10:07;11.30;99.90
14735;DHT22;7458;49.002;8.472;2022-09-27T12:12:40;11.30;99.90
14735;DHT22;7458;49.002;8.472;2022-09-27T12:15:18;11.20;99.90
14735;DHT22;7458;49.002;8.472;2022-09-27T12:17:55;11.00;99.90
14735;DHT22;7458;49.002;8.472;2022-09-27T12:20:30;10.80;99.90
14735;DHT22;7458;49.002;8.472;2022-09-27T12:23:10;10.80;99.90
14735;DHT22;7458;49.002;8.472;2022-09-27T12:25:48;10.80;99.90
14735;DHT22;7458;49.002;8.472;2022-09-27T12:34:28;11.20;99.90
14735;DHT22;7458;49.002;8.472;2022-09-27T12:37:20;11.50;99.90
14735;DHT22;7458;49.002;8.472;2022-09-27T12:40:02;11.60;99.90
14735;DHT22;7458;49.002;8.472;2022-09-27T12:51:15;11.80;99.90
14735;DHT22;7458;49.002;8.472;2022-09-27T13:14:20;12.70;99.90
14735;DHT22;7458;49.002;8.472;2022-09-27T13:16:50;12.50;99.90
14735;DHT22;7458;49.002;8.472;2022-09-27T13:19:40;12.50;99.90
14735;DHT22;7458;49.002;8.472;2022-09-27T13:22:54;12.60;99.90
14735;DHT22;7458;49.002;8.472;2022-09-27T13:25:00;12.60;99.90
14735;DHT22;7458;49.002;8.472;2022-09-27T13:32:37;12.80;99.90
14735;DHT22;7458;49.002;8.472;2022-09-27T13:35:24;12.70;99.90
14735;DHT22;7458;49.002;8.472;2022-09-27T13:37:55;12.80;99.90
14735;DHT22;7458;49.002;8.472;2022-09-27T13:40:27;12.80;99.90
14735;DHT22;7458;49.002;8.472;2022-09-27T13:45:58;13.00;99.90
14735;DHT22;7458;49.002;8.472;2022-09-27T13:48:43;12.90;99.90
14735;DHT22;7458;49.002;8.472;2022-09-27T13:54:04;12.70;99.90
14735;DHT22;7458;49.002;8.472;2022-09-27T14:04:41;12.20;99.90
14735;DHT22;7458;49.002;8.472;2022-09-27T14:07:15;12.10;99.90
14735;DHT22;7458;49.002;8.472;2022-09-27T14:09:46;12.00;99.90
14735;DHT22;7458;49.002;8.472;2022-09-27T14:12:38;11.90;99.90
14735;DHT22;7458;49.002;8.472;2022-09-27T14:15:07;11.90;99.90
14735;DHT22;7458;49.002;8.472;2022-09-27T14:17:42;11.80;99.90
14735;DHT22;7458;49.002;8.472;2022-09-27T14:20:37;11.80;99.90
14735;DHT22;7458;49.002;8.472;2022-09-27T14:23:22;11.80;99.90
14735;DHT22;7458;49.002;8.472;2022-09-27T14:25:53;11.80;99.90
14735;DHT22;7458;49.002;8.472;2022-09-27T14:28:24;12.00;99.90
14735;DHT22;7458;49.002;8.472;2022-09-27T14:31:14;12.20;99.90
14735;DHT22;7458;49.002;8.472;2022-09-27T14:33:47;12.30;99.90
14735;DHT22;7458;49.002;8.472;2022-09-27T14:36:26;12.30;99.90
14735;DHT22;7458;49.002;8.472;2022-09-27T14:39:28;12.30;99.90
14735;DHT22;7458;49.002;8.472;2022-09-27T14:42:04;12.30;99.90
14735;DHT22;7458;49.002;8.472;2022-09-27T14:44:43;12.00;99.90
14735;DHT22;7458;49.002;8.472;2022-09-27T14:47:31;12.10;99.90
14735;DHT22;7458;49.002;8.472;2022-09-27T14:49:59;12.20;99.90
14735;DHT22;7458;49.002;8.472;2022-09-27T14:52:38;12.10;99.90
14735;DHT22;7458;49.002;8.472;2022-09-27T14:55:18;12.20;99.90
14735;DHT22;7458;49.002;8.472;2022-09-27T14:57:49;12.10;99.90
14735;DHT22;7458;49.002;8.472;2022-09-27T15:00:22;12.10;99.90
14735;DHT22;7458;49.002;8.472;2022-09-27T15:02:52;12.20;99.90
14735;DHT22;7458;49.002;8.472;2022-09-27T15:05:28;12.20;99.90
14735;DHT22;7458;49.002;8.472;2022-09-27T15:07:58;12.30;99.90
14735;DHT22;7458;49.002;8.472;2022-09-27T15:10:29;12.20;99.90
14735;DHT22;7458;49.002;8.472;2022-09-27T15:12:59;12.20;99.90
14735;DHT22;7458;49.002;8.472;2022-09-27T15:15:30;12.00;99.90
14735;DHT22;7458;49.002;8.472;2022-09-27T15:18:00;11.80;99.90
14735;DHT22;7458;49.002;8.472;2022-09-27T15:20:32;11.80;99.90
14735;DHT22;7458;49.002;8.472;2022-09-27T15:23:01;11.80;99.90
14735;DHT22;7458;49.002;8.472;2022-09-27T15:25:42;11.90;99.90
14735;DHT22;7458;49.002;8.472;2022-09-27T15:28:23;11.80;99.90
14735;DHT22;7458;49.002;8.472;2022-09-27T15:30:56;11.90;99.90
14735;DHT22;7458;49.002;8.472;2022-09-27T15:33:27;11.90;99.90
14735;DHT22;7458;49.002;8.472;2022-09-27T15:36:04;11.80;99.90
14735;DHT22;7458;49.002;8.472;2022-09-27T15:38:38;11.80;99.90
14735;DHT22;7458;49.002;8.472;2022-09-27T15:41:13;11.80;99.90
14735;DHT22;7458;49.002;8.472;2022-09-27T15:43:50;11.80;99.90
14735;DHT22;7458;49.002;8.472;2022-09-27T15:51:56;12.00;99.90
14735;DHT22;7458;49.002;8.472;2022-09-27T15:54:28;12.00;99.90
14735;DHT22;7458;49.002;8.472;2022-09-27T15:57:01;11.90;99.90
14735;DHT22;7458;49.002;8.472;2022-09-27T15:59:32;11.80;99.90
14735;DHT22;7458;49.002;8.472;2022-09-27T16:02:02;11.80;99.90
14735;DHT22;7458;49.002;8.472;2022-09-27T16:04:37;11.70;99.90
14735;DHT22;7458;49.002;8.472;2022-09-27T16:07:04;11.90;99.90
14735;DHT22;7458;49.002;8.472;2022-09-27T16:09:33;11.90;99.90
14735;DHT22;7458;49.002;8.472;2022-09-27T16:11:59;11.80;99.90
14735;DHT22;7458;49.002;8.472;2022-09-27T16:14:25;11.80;99.90
14735;DHT22;7458;49.002;8.472;2022-09-27T16:16:55;11.80;99.90
14735;DHT22;7458;49.002;8.472;2022-09-27T16:19:22;11.80;99.90
14735;DHT22;7458;49.002;8.472;2022-09-27T16:21:48;11.70;99.90
14735;DHT22;7458;49.002;8.472;2022-09-27T16:24:14;12.00;99.90
14735;DHT22;7458;49.002;8.472;2022-09-27T16:26:41;12.90;99.90
14735;DHT22;7458;49.002;8.472;2022-09-27T16:29:12;13.80;99.90
14735;DHT22;7458;49.002;8.472;2022-09-27T16:31:39;13.20;99.90
14735;DHT22;7458;49.002;8.472;2022-09-27T16:34:07;12.60;99.90
14735;DHT22;7458;49.002;8.472;2022-09-27T16:36:34;12.40;99.90
14735;DHT22;7458;49.002;8.472;2022-09-27T16:39:00;12.30;99.90
14735;DHT22;7458;49.002;8.472;2022-09-27T16:41:29;12.10;99.90
14735;DHT22;7458;49.002;8.472;2022-09-27T16:43:58;11.90;99.90
14735;DHT22;7458;49.002;8.472;2022-09-27T16:46:24;11.90;99.90
14735;DHT22;7458;49.002;8.472;2022-09-27T16:48:50;11.70;99.90
14735;DHT22;7458;49.002;8.472;2022-09-27T16:51:18;11.70;99.90
14735;DHT22;7458;49.002;8.472;2022-09-27T16:54:05;11.60;99.90
14735;DHT22;7458;49.002;8.472;2022-09-27T16:56:33;11.60;99.90
14735;DHT22;7458;49.002;8.472;2022-09-27T16:59:00;11.40;99.90
14735;DHT22;7458;49.002;8.472;2022-09-27T17:01:29;11.30;99.90
14735;DHT22;7458;49.002;8.472;2022-09-27T17:03:56;11.30;99.90
14735;DHT22;7458;49.002;8.472;2022-09-27T17:06:22;11.20;99.90
14735;DHT22;7458;49.002;8.472;2022-09-27T17:08:48;11.20;99.90
14735;DHT22;7458;49.002;8.472;2022-09-27T17:11:17;11.20;99.90
14735;DHT22;7458;49.002;8.472;2022-09-27T17:13:44;11.20;99.90
14735;DHT22;7458;49.002;8.472;2022-09-27T17:16:12;11.20;99.90
14735;DHT22;7458;49.002;8.472;2022-09-27T17:18:38;11.10;99.90
14735;DHT22;7458;49.002;8.472;2022-09-27T17:21:06;11.00;99.90
14735;DHT22;7458;49.002;8.472;2022-09-27T17:23:34;11.10;99.90
14735;DHT22;7458;49.002;8.472;2022-09-27T17:26:34;11.10;99.90
14735;DHT22;7458;49.002;8.472;2022-09-27T17:28:56;11.00;99.90
14735;DHT22;7458;49.002;8.472;2022-09-27T17:31:26;11.00;99.90
14735;DHT22;7458;49.002;8.472;2022-09-27T17:33:53;10.90;99.90
14735;DHT22;7458;49.002;8.472;2022-09-27T17:36:25;10.90;99.90
14735;DHT22;7458;49.002;8.472;2022-09-27T17:38:52;10.80;99.90
14735;DHT22;7458;49.002;8.472;2022-09-27T17:41:21;10.90;99.90
14735;DHT22;7458;49.002;8.472;2022-09-27T17:43:56;10.90;99.90
14735;DHT22;7458;49.002;8.472;2022-09-27T17:46:34;10.90;99.90
14735;DHT22;7458;49.002;8.472;2022-09-27T17:49:01;11.00;99.90
14735;DHT22;7458;49.002;8.472;2022-09-27T17:51:51;11.10;99.90
14735;DHT22;7458;49.002;8.472;2022-09-27T17:54:22;11.00;99.90
14735;DHT22;7458;49.002;8.472;2022-09-27T17:56:52;11.00;99.90
14735;DHT22;7458;49.002;8.472;2022-09-27T17:59:18;11.00;99.90
14735;DHT22;7458;49.002;8.472;2022-09-27T18:01:45;11.00;99.90
14735;DHT22;7458;49.002;8.472;2022-09-27T18:04:14;11.00;99.90
14735;DHT22;7458;49.002;8.472;2022-09-27T18:06:45;11.00;99.90
14735;DHT22;7458;49.002;8.472;2022-09-27T18:09:13;10.90;99.90
14735;DHT22;7458;49.002;8.472;2022-09-27T18:11:41;10.90;99.90
14735;DHT22;7458;49.002;8.472;2022-09-27T18:14:08;10.90;99.90
14735;DHT22;7458;49.002;8.472;2022-09-27T18:16:38;10.90;99.90
14735;DHT22;7458;49.002;8.472;2022-09-27T18:19:10;10.90;99.90
14735;DHT22;7458;49.002;8.472;2022-09-27T18:21:38;10.80;99.90
14735;DHT22;7458;49.002;8.472;2022-09-27T18:24:04;10.80;99.90
14735;DHT22;7458;49.002;8.472;2022-09-27T18:26:32;10.70;99.90
14735;DHT22;7458;49.002;8.472;2022-09-27T18:29:03;10.70;99.90
14735;DHT22;7458;49.002;8.472;2022-09-27T18:31:31;10.70;99.90
14735;DHT22;7458;49.002;8.472;2022-09-27T18:33:57;10.60;99.90
14735;DHT22;7458;49.002;8.472;2022-09-27T18:36:25;10.70;99.90
14735;DHT22;7458;49.002;8.472;2022-09-27T18:38:56;10.60;99.90
14735;DHT22;7458;49.002;8.472;2022-09-27T18:41:28;10.70;99.90
14735;DHT22;7458;49.002;8.472;2022-09-27T18:43:58;10.70;99.90
14735;DHT22;7458;49.002;8.472;2022-09-27T18:46:27;10.70;99.90
14735;DHT22;7458;49.002;8.472;2022-09-27T18:48:55;10.60;99.90
14735;DHT22;7458;49.002;8.472;2022-09-27T18:51:24;10.60;99.90
14735;DHT22;7458;49.002;8.472;2022-09-27T18:53:56;10.70;99.90
14735;DHT22;7458;49.002;8.472;2022-09-27T18:56:24;10.70;99.90
14735;DHT22;7458;49.002;8.472;2022-09-27T18:58:51;10.70;99.90
14735;DHT22;7458;49.002;8.472;2022-09-27T19:01:18;10.80;99.90
14735;DHT22;7458;49.002;8.472;2022-09-27T19:03:46;10.70;99.90
14735;DHT22;7458;49.002;8.472;2022-09-27T19:06:20;10.70;99.90
14735;DHT22;7458;49.002;8.472;2022-09-27T19:08:52;10.70;99.90
14735;DHT22;7458;49.002;8.472;2022-09-27T19:11:20;10.70;99.90
14735;DHT22;7458;49.002;8.472;2022-09-27T19:13:50;10.60;99.90
14735;DHT22;7458;49.002;8.472;2022-09-27T19:16:19;10.70;99.90
14735;DHT22;7458;49.002;8.472;2022-09-27T19:18:45;10.70;99.90